Suggestion Search

Define a bounding box (note: it will not wrap North/South over poles). If the range is zero degrees, a bounding box will not be used to constrain the search.

Centered On °   °

Match text in the suggestion title, science rationale or special notes. The search is case-insensitive. % is a wildcard (_ for a single character).

Find
Search

You may select science themes to limit query, otherwise suggestions from all themes will be returned.

Multiple values may be selected (shift + click).

  Rows per page
12,748 records found, displaying 1 to 100.[First/Prev] 1, 2, 3, 4, 5, 6, 7, 8 [Next/Last]
ID Suggestion Title Latitude Longitude Repeat Created Observation ID
187354 Dunes in crater south of Miyamoto Crater -4.450 353.403 2 2020-10-18
187322 Ridge networks in southern mid-latitudes -39.060 313.884 1 2020-10-16
186886 Channel in Terra Sirenum -41.023 238.950 1 2020-10-09
186767 Inverted channel in valley in Tyrrhena Terra 1.472 102.005 1 2013-03-29 ESP_065971_1815
185984 Cones in Phlegra region 30.465 174.996 1 2020-09-14
185920 Ringed ridges in Kasei Valles 28.719 293.029 1 2020-09-09
185715 Layers near Mawrth Vallis 19.751 345.102 1 2016-01-18 ESP_065962_2000
185692 Gullies in southern mid-latitude crater -39.550 343.301 1 2020-08-25 ESP_066147_1400
185350 Secondary craters in Nilus Chaos region 24.407 281.499 1 2020-08-11
185282 Channels in Enipeus Vallis 36.634 267.060 1 2020-08-04
185280 Channels in Enipeus Vallis 38.359 266.775 1 2020-08-04
185262 Crater with bench in Enipeus Vallis 37.944 266.846 1 2020-08-04
185260 Crater with mesa in Enipeus Vallis 37.987 266.753 1 2020-08-04
185258 Streamlined forms in Enipeus Vallis 37.305 267.182 1 2020-08-04
185256 Streamlined forms in Enipeus Vallis 37.298 266.915 1 2020-08-04
185234 Channel near Enipeus Vallis 36.205 266.983 1 2020-08-03 ESP_066466_2165
185232 Crater in northern mid-latitudes 36.390 267.535 1 2020-08-03 ESP_066189_2165
185230 Layers in crater in northern mid-latitudes 36.523 267.365 1 2020-08-03
185228 Channels in northern mid-latitudes 34.498 267.760 1 2020-08-03
185226 Channel in northern mid-latitudes 36.419 268.776 1 2020-08-03
185220 Channel in northern mid-latitudes 36.245 268.562 1 2020-08-03
185192 Layers in ridge in northern mid-latitudes 34.815 268.590 1 2020-08-03
185180 Lava flow in northern mid-latitudes 33.484 268.842 1 2020-08-03
185170 Lava flow in northern mid-latitudes 37.674 269.077 1 2020-08-03
185168 Lava flowing into crater in northern mid-latitudes 37.566 269.294 1 2020-08-03
185166 Layers in crater in northern mid-latitudes 37.866 268.855 1 2020-08-03
185164 Lava flow in northern mid-latitudes 37.570 268.745 1 2020-08-03
185162 Rings in crater ejecta in northern mid-latitudes 37.160 269.272 1 2020-08-03
185160 Lava flow in northern mid-latitudes 36.195 268.940 1 2020-08-03
185152 Depression in northern mid-latitudes 35.855 271.137 1 2020-08-01
185150 Double crater in northern mid-latitudes 35.626 270.882 1 2020-08-01
185148 Channel in northern mid-latitudes 35.033 271.090 1 2020-08-01
185146 Ridge in northern mid-latitudes 34.580 270.920 1 2020-08-01
185144 Grooves in ejecta in northern mid-latitudes 33.756 270.905 1 2020-08-01
185142 Craters in ejecta in northern mid-latitudes 33.987 270.873 1 2020-08-01
185140 Trough in northern mid-latitudes 32.327 272.560 1 2020-08-01
185138 Layers in crater wall in Mareotis Fossae 34.134 270.967 1 2020-07-31
185120 Volcanic vent in Tempe Fossae region 33.317 272.692 1 2020-07-31
185118 Ridges in Tempe Fossae region 32.981 272.466 1 2020-07-31
185116 Trough in northern mid-latitudes 32.584 272.775 1 2020-07-31
185114 Ridges in Tempe Fossae region 32.967 273.290 1 2020-07-31
185112 Ridges in Tempe Fossae region 33.069 273.375 1 2020-07-31
185110 Ridges in Tempe Fossae region 33.032 273.395 1 2020-07-31
185108 Ridges in Tempe Fossae 32.105 273.777 1 2020-07-31 ESP_066756_2125
185104 Ridge in Tempe Fossae region 31.877 273.617 1 2020-07-30
185102 Small channel in Tempe Fossae region 31.163 273.914 1 2020-07-30
185100 Channels in crater in Tempe Fossae region 30.930 273.796 1 2020-07-30
185098 Possible fan in Tempe Fossae 30.544 273.443 1 2020-07-30
185096 Channels in crater in Tempe Fossae region 30.385 273.518 1 2020-07-30
185094 Rings in crater ejecta in Tempe Fossae 30.399 273.675 1 2020-07-30 ESP_066202_2105
185092 Fresh crater ejecta in Tempe Fossae region 30.285 273.752 1 2020-07-30
185070 Mesas in Nilus Chaos 24.860 281.529 1 2020-07-29
185068 Secondary craters in Nilus Chaos region 24.407 281.499 1 2020-07-29
185066 Layers in crater wall in Nilus Chaos 24.568 281.542 1 2020-07-29
185064 Troughs in Nilus Chaos 25.823 281.455 1 2020-07-29
185062 Slump along scarp in Nilus Chaos 24.972 281.608 1 2020-07-29
185060 Layers in crater in Nilus Chaos 25.166 281.776 1 2020-07-29
184972 Layers in wall of crater near Nilus Chaos 25.000 282.405 1 2020-07-27
184950 Channels near ejecta 23.701 282.306 1 2020-07-27
184932 Lava flows near Nilus Chaos 21.606 282.823 1 2020-07-27
184930 Possible sources of lava near Nilus Chaos 21.564 282.904 1 2020-07-27
184928 Lava flowing in troughs near Nilus Chaos 21.469 282.888 1 2020-07-27
184926 Lava flow moving into crater near Nilus Chaos 21.077 282.740 1 2020-07-27
184924 Lava flow moving down trough near Nilus Chaos 21.082 282.960 1 2020-07-27
184922 Lava flow interacting with topography near Nilus Chaos 21.015 283.002 1 2020-07-27
184920 Crater with bench near Nilus Chaos 23.604 282.598 1 2020-07-27
184916 Lava flows and craters near Nilus Chaos 20.992 282.872 1 2020-07-26
184914 Ejecta lobes of northern mid-latitude crater 26.028 282.483 1 2020-07-26
184912 Layers in crater wall in northern mid-latitudes 29.721 282.092 1 2020-07-26
184910 Streaks in northern mid-latitude crater 28.750 282.191 1 2020-07-26
184904 Troughs near Nilus Chaos 26.684 283.874 1 2020-07-26 ESP_066914_2070
184902 Channels from trough in Nilus Chaos 26.667 284.072 1 2020-07-26 ESP_066571_2070
184900 Curved channel near Nilus Chaos 25.528 284.480 1 2020-07-26
184896 Layers in crater wall in northern mid-latitudes 28.295 292.610 1 2020-07-25
184894 Mound with ridges in Labeatis Fossae region 24.809 285.020 1 2020-07-25
184892 Channels in Labeatis Fossae region 25.859 285.292 1 2020-07-25
184890 Lava ridges in Labeatis Fossae region 26.438 284.954 1 2020-07-25
184888 Lava ridges in Labeatis Fossae region 27.707 284.804 1 2020-07-25
184886 Layers in trough in Labeatis Fossae 28.240 284.606 1 2020-07-25 ESP_066228_2085
184884 Dark slope streaks in Labeatis Fossae region 29.736 284.307 1 2020-07-25
184882 Trough cutting across wrinkle ridge in Labeatis Fossae region 29.037 284.848 1 2020-07-25
184876 Dark slope streaks in Labeatis Fossae region 26.434 284.717 1 2020-07-24
184872 Troughs in Labeatis Fossae 32.127 285.016 1 2020-07-24
184870 Channels cutting across troughs in Labeatis Fossae 29.387 285.337 1 2020-07-24
184868 Channels in Labeatis Fossae 29.430 285.279 1 2020-07-24
184866 Channels near crater in Labeatis Fossae 29.418 285.156 1 2020-07-24
184864 Brain terrain in a depression in Labeatis Fossae 29.681 285.156 1 2020-07-24
184862 Troughs in Kasei Vallis region 32.904 291.976 1 2020-07-23
184860 Mesas in Kasei Valles region 25.328 293.583 1 2020-07-23
184858 Layers Kasei Valles region 26.646 293.674 1 2020-07-23
184856 Troughs in Kasei Vallis 27.080 293.229 1 2020-07-23
184854 Channels in Kasei Valles 27.391 293.813 1 2020-07-23
184852 Channel eroding crater in Kasei Valles 27.440 293.574 1 2020-07-23
184850 Channels in Kasei Valles 27.407 293.467 1 2020-07-23
184848 Troughs in Kasei Vallis 27.489 293.284 1 2020-07-22
184846 Channel cutting through crater rim in Kasei Valles 29.929 293.388 1 2020-07-22
184844 Layers in crater in Kasei Valles 28.449 300.480 1 2020-07-22
184842 Ringed ridges in Kasei Valles 28.719 293.029 1 2020-07-22 ESP_066109_2090
184840 Layers in trough in Kasei Valles region 23.120 300.166 1 2020-07-22
184838 Layers in crater wall in Kasei Valles region 24.442 300.103 1 2020-07-22

Each suggestion is given a unique ID. A stereo suggestion will be made into a pair at the discretion of the Science Theme Lead.

Suggestion title.

Latitudes are expressed in planetocentric degrees.

Longitude are measured in degrees and range east from 0 to 360.

1 for a single suggestion, STEREO for a stereo suggestion, otherwise the number of suggestions in a seasonal or other repeat set.

The date on which the suggestion was created.

If the suggestion has been retired, a link to the observation page.

The username of the suggester.